FW4841 Odessa FL US current weather conditions

sailwx.info

Wind from 307 at 3 knots gusting 5

Air temperature 30.6° C
Dewpoint 24.2° C

Last reported at 2020-Jul-09 22:00 UTC.
Time now 2020-Jul-09 23:05 UTC

Location: N 28°08' W 082°36'.
View on Google Maps.

See reports from other nearby stations

  
Tides and Currents Weather Stations Pressure Air Temp Water Temp Dewpoint Dewpoint Depression Visibility Wind Speed Wind Dir Waves Ship Positions
date/time (UTC)wind fromknots sea level pressurealtimeterstation pressurevisibilityair tempwater tempwave heightnotes
2020-Jul-09 22:00 307 3 gusting 5 30.6
2020-Jul-09 21:45 347 5 gusting 6 30.6
2020-Jul-09 21:30 278 5 gusting 7 30.6
2020-Jul-09 21:15 275 7 gusting 7 30.6
2020-Jul-09 21:01 321 4 gusting 5 30.6
2020-Jul-09 20:45 316 3 gusting 7 30.6
2020-Jul-09 20:38 316 6 gusting 8 30.6
2020-Jul-09 20:15 323 7 gusting 7 30.6
2020-Jul-09 20:00 310 6 gusting 6 30.6
2020-Jul-09 19:45 331 6 gusting 7 30.0
2020-Jul-09 19:30 321 5 gusting 9 30.0
2020-Jul-09 19:15 339 5 gusting 6 30.0
2020-Jul-09 19:00 302 5 gusting 8 30.0
2020-Jul-09 18:45 309 4 gusting 10 30.6
2020-Jul-09 18:30 297 4 gusting 8 30.6
2020-Jul-09 18:15 320 6 gusting 7 30.6
2020-Jul-09 18:00 311 2 gusting 10 30.6
2020-Jul-09 17:46 314 4 gusting 8 30.0
2020-Jul-09 17:30 274 6 gusting 8 30.0
2020-Jul-09 17:15 281 5 gusting 5 30.0
2020-Jul-09 17:00 321 6 gusting 6 30.0
2020-Jul-09 16:45 266 6 gusting 8 30.0
2020-Jul-09 16:30 320 5 gusting 12 30.0
2020-Jul-09 16:15 317 6 gusting 9 30.0
2020-Jul-09 16:00 276 4 gusting 9 29.4
2020-Jul-09 15:45 285 6 gusting 7 29.4
2020-Jul-09 15:31 310 6 gusting 6 28.9
2020-Jul-09 15:15 290 1 gusting 2 27.8
2020-Jul-09 15:01 266 5 gusting 5 28.9
2020-Jul-09 14:45 316 5 gusting 5 28.9
2020-Jul-09 14:32 306 1 gusting 3 28.3
2020-Jul-09 14:15 314 4 gusting 5 28.9
2020-Jul-09 14:01 297 1 gusting 4 28.9
2020-Jul-09 13:45 259 3 gusting 5 29.4
2020-Jul-09 13:31 302 4 gusting 5 28.9
2020-Jul-09 13:15 308 1 gusting 3 28.9
2020-Jul-09 13:00 321 5 gusting 5 28.9
2020-Jul-09 12:45 311 0 gusting 3 28.3
2020-Jul-09 12:30 250 0 gusting 0 27.2
2020-Jul-09 12:15 269 27.2
2020-Jul-09 12:00 236 27.2
2020-Jul-09 11:46 224 0 gusting 0 26.7
2020-Jul-09 11:31 140 26.7
2020-Jul-09 11:16 26.7
2020-Jul-09 11:00 26.7
2020-Jul-09 10:45 287 27.2
2020-Jul-09 10:31 284 2 gusting 2 27.2
2020-Jul-09 10:15 27.2
2020-Jul-09 10:00 288 27.2
2020-Jul-09 09:46 252 0 gusting 0 27.2
2020-Jul-09 09:30 276 27.2
2020-Jul-09 09:15 278 1 gusting 1 27.2
2020-Jul-09 09:00 293 27.2
2020-Jul-09 08:45 293 0 gusting 1 27.2
2020-Jul-09 08:30 301 0 gusting 1 27.2
2020-Jul-09 08:15 304 0 gusting 1 27.2
2020-Jul-09 08:00 286 27.2
2020-Jul-09 07:46 284 27.2
2020-Jul-09 07:31 273 0 gusting 1 27.2
2020-Jul-09 07:15 241 27.2
2020-Jul-09 07:01 293 27.2
2020-Jul-09 06:45 27.2
2020-Jul-09 06:30 27.2
2020-Jul-09 06:15 284 27.2
2020-Jul-09 06:01 301 0 gusting 0 27.2
2020-Jul-09 05:45 310 0 gusting 0 27.8
2020-Jul-09 05:31 27.8
2020-Jul-09 05:15 265 27.8
2020-Jul-09 05:01 239 1 gusting 1 27.8
2020-Jul-09 04:45 269 0 gusting 1 27.8
2020-Jul-09 04:31 276 0 gusting 0 27.8
2020-Jul-09 04:15 281 27.8
2020-Jul-09 04:01 262 1 gusting 1 27.8
2020-Jul-09 03:46 285 0 gusting 2 27.8
2020-Jul-09 03:30 286 1 gusting 1 27.8
2020-Jul-09 03:15 281 1 gusting 2 27.8
2020-Jul-09 03:01 292 2 gusting 2 27.8
2020-Jul-09 02:46 273 0 gusting 2 27.8
2020-Jul-09 02:30 265 1 gusting 1 27.8
2020-Jul-09 02:16 274 27.8
2020-Jul-09 02:00 267 2 gusting 2 27.8
2020-Jul-09 01:45 256 0 gusting 0 28.3
2020-Jul-09 01:30 284 0 gusting 1 28.3
2020-Jul-09 01:16 271 1 gusting 2 28.3
2020-Jul-09 01:01 271 1 gusting 2 28.3
2020-Jul-09 00:45 304 0 gusting 4 28.9
2020-Jul-09 00:30 271 2 gusting 3 28.9
2020-Jul-09 00:16 290 2 gusting 2 28.9
2020-Jul-09 00:00 295 5 gusting 5 28.9
2020-Jul-08 23:45 311 1 gusting 4 28.9
2020-Jul-08 23:31 280 4 gusting 4 28.9
2020-Jul-08 23:15 282 3 gusting 7 29.4
2020-Jul-08 23:01 290 3 gusting 4 29.4
2020-Jul-08 22:45 278 5 gusting 5 29.4
2020-Jul-08 22:30 293 5 gusting 5 29.4
2020-Jul-08 22:15 266 3 gusting 7 29.4
2020-Jul-08 22:00 291 3 gusting 5 29.4
2020-Jul-08 21:45 262 6 gusting 8 29.4
2020-Jul-08 21:31 325 1 gusting 6 29.4
2020-Jul-08 21:16 314 6 gusting 6 29.4
2020-Jul-08 21:01 281 3 gusting 3 29.4
2020-Jul-08 20:46 317 5 gusting 6 29.4
2020-Jul-08 20:31 305 4 gusting 9 29.4
2020-Jul-08 20:15 280 6 gusting 6 29.4
2020-Jul-08 20:00 266 7 gusting 7 29.4
2020-Jul-08 19:45 277 7 gusting 7 29.4
2020-Jul-08 19:32 276 4 gusting 5 29.4
2020-Jul-08 19:15 255 6 gusting 6 28.3
2020-Jul-08 19:00 283 4 gusting 7 28.3
2020-Jul-08 18:45 290 3 gusting 3 27.8
2020-Jul-08 18:30 288 2 gusting 4 28.3
2020-Jul-08 18:16 268 5 gusting 14 28.3
2020-Jul-08 18:00 276 6 gusting 7 29.4
2020-Jul-08 17:45 293 4 gusting 5 28.9
2020-Jul-08 17:30 324 2 gusting 3 27.8
2020-Jul-08 17:15 276 2 gusting 2 27.8
2020-Jul-08 17:02 310 1 gusting 3 27.2
2020-Jul-08 16:45 334 5 gusting 7 27.2
2020-Jul-08 16:31 289 2 gusting 6 27.2
2020-Jul-08 16:16 338 1 gusting 6 27.8
2020-Jul-08 16:01 321 7 gusting 8 30.0
2020-Jul-08 15:45 281 5 gusting 6 30.0
2020-Jul-08 15:30 281 6 gusting 6 30.0
2020-Jul-08 15:15 262 6 gusting 6 29.4
2020-Jul-08 15:00 332 5 gusting 6 29.4
2020-Jul-08 14:45 274 6 gusting 6 29.4
2020-Jul-08 14:30 287 3 gusting 5 29.4
2020-Jul-08 14:16 296 5 gusting 7 28.9
2020-Jul-08 14:00 250 4 gusting 6 28.9
2020-Jul-08 13:45 276 4 gusting 6 28.9
2020-Jul-08 13:31 278 4 gusting 5 28.9
2020-Jul-08 13:16 284 2 gusting 2 28.3
2020-Jul-08 13:00 247 0 gusting 2 27.8
2020-Jul-08 12:45 255 2 gusting 2 27.8
2020-Jul-08 12:30 231 1 gusting 2 27.8
2020-Jul-08 12:15 266 0 gusting 1 26.7
2020-Jul-08 12:01 219 0 gusting 0 26.7
2020-Jul-08 11:45 221 26.1
2020-Jul-08 11:31 26.1
2020-Jul-08 11:15 26.1
2020-Jul-08 11:00 26.1
2020-Jul-08 10:45 226 0 gusting 0 26.1
2020-Jul-08 10:30 234 25.6
2020-Jul-08 10:15 227 25.6
2020-Jul-08 10:02 25.6
2020-Jul-08 09:45 26.1
2020-Jul-08 09:30 247 0 gusting 1 26.1
2020-Jul-08 09:15 243 26.1
2020-Jul-08 09:01 243 26.1
2020-Jul-08 08:45 247 0 gusting 0 26.1
2020-Jul-08 08:30 25.6
2020-Jul-08 08:16 25.6
2020-Jul-08 08:00 196 26.1
2020-Jul-08 07:45 26.1
2020-Jul-08 07:30 229 26.1
2020-Jul-08 07:15 25.6
2020-Jul-08 07:01 222 26.1
2020-Jul-08 06:45 226 0 gusting 0 25.6
2020-Jul-08 06:31 198 25.6
2020-Jul-08 06:15 197 25.6
2020-Jul-08 06:00 200 26.1
2020-Jul-08 05:46 26.1
2020-Jul-08 05:31 197 26.1
2020-Jul-08 05:15 193 26.1
2020-Jul-08 05:01 195 26.1
2020-Jul-08 04:46 26.1
2020-Jul-08 04:30 26.7
2020-Jul-08 04:15 26.7
2020-Jul-08 04:01 194 27.2
2020-Jul-08 03:45 256 27.2
2020-Jul-08 03:31 267 0 gusting 0 27.2
2020-Jul-08 03:16 288 0 gusting 1 27.2
2020-Jul-08 03:00 279 0 gusting 1 27.2
2020-Jul-08 02:45 257 1 gusting 2 27.8
2020-Jul-08 02:30 274 0 gusting 3 27.8
2020-Jul-08 02:15 294 0 gusting 2 27.8
2020-Jul-08 02:01 293 0 gusting 1 27.8
2020-Jul-08 01:45 271 1 gusting 1 28.3
2020-Jul-08 01:30 253 0 gusting 0 28.3
2020-Jul-08 01:15 288 0 gusting 2 28.3
2020-Jul-08 01:01 303 1 gusting 3 28.9
2020-Jul-08 00:45 281 1 gusting 1 28.9
2020-Jul-08 00:30 272 3 gusting 3 29.4
2020-Jul-08 00:16 264 3 gusting 4 29.4
2020-Jul-08 00:00 269 2 gusting 5 29.4
2020-Jul-07 23:45 262 1 gusting 3 30.0
2020-Jul-07 23:30 271 2 gusting 5 30.0
2020-Jul-07 23:15 244 3 gusting 5 30.0
2020-Jul-07 23:00 259 6 gusting 6 30.0